Cincinnati, Ohio
Traffic Map
Current Weather Conditions
Cincinnati, Ohio
Broken Clouds
Broken Clouds
72°
Feels Like: 72°
Wind Chill: 72° Ceiling: 7000
Heat Index: 72° Visibility: 10mi
Dew Point: 53° Wind: 7mph
Humidity: 51% Direction: ° ()
Pressure: 30.04in Gusts: 0mph
Raw Report DataKLUK 292253Z VRB06KT 10SM BKN070 22/12 A3004 RMK AO2 SLP171 T02220117
Traffic Incident Summary
Active as of:
Severity:
Category:
InformationThere was an issue retrieving the traffic information for this location. Please try a different location or try again shortly.
Advertisements
Track Severe Weather on mobile